createdAt,value
2023-06-19T00:08:31.755Z,96853.38
2023-06-19T00:18:41.103Z,96850.80
2023-06-19T00:28:57.747Z,96852.55
2023-06-19T00:39:04.897Z,96852.66
2023-06-19T00:49:09.189Z,96857.00
2023-06-19T00:59:20.301Z,96854.43
2023-06-19T01:09:23.465Z,96847.58
2023-06-19T01:19:27.491Z,96848.14
2023-06-19T01:29:33.893Z,96849.20
2023-06-19T01:39:38.585Z,96850.02
2023-06-19T01:49:45.105Z,96849.34
2023-06-19T01:59:48.762Z,96858.79
2023-06-19T02:09:55.326Z,96856.80
2023-06-19T02:20:01.798Z,96862.41
2023-06-19T02:30:06.332Z,96863.34
2023-06-19T02:48:05.941Z,96863.88
2023-06-19T02:58:09.758Z,96862.58
2023-06-19T03:08:15.428Z,96866.30
2023-06-19T03:18:18.892Z,96869.30
2023-06-19T03:28:22.844Z,96874.57
2023-06-19T03:38:26.392Z,96873.94
2023-06-19T03:48:30.324Z,96878.06
2023-06-19T03:58:34.864Z,96881.04
2023-06-19T04:08:39.822Z,96880.99
2023-06-19T04:18:43.593Z,96872.73
2023-06-19T04:28:47.497Z,96871.27
2023-06-19T04:38:54.146Z,96874.66
2023-06-19T04:48:57.607Z,96882.73
2023-06-19T04:59:08.993Z,96878.94
2023-06-19T05:09:12.726Z,96885.02
2023-06-19T05:19:16.686Z,96879.77
2023-06-19T05:29:19.933Z,96876.88
2023-06-19T05:39:24.217Z,96884.48
2023-06-19T05:49:27.258Z,96887.02
2023-06-19T05:59:30.393Z,96893.34
2023-06-19T06:09:34.423Z,96898.98
2023-06-19T06:19:38.389Z,96898.98
2023-06-19T06:29:42.724Z,96894.44
2023-06-19T06:39:46.947Z,96892.67
2023-06-19T06:49:50.147Z,96897.76
2023-06-19T06:59:55.065Z,96902.83
2023-06-19T07:09:58.284Z,96905.40
2023-06-19T07:20:02.642Z,96907.33
2023-06-19T07:30:06.657Z,96894.33
2023-06-19T07:40:11.262Z,96890.66
2023-06-19T07:50:17.330Z,96901.25
2023-06-19T08:00:20.854Z,96901.46
2023-06-19T08:10:24.588Z,96903.44
2023-06-19T08:20:28.434Z,96895.65
2023-06-19T08:30:32.094Z,96894.93
2023-06-19T08:40:35.425Z,96898.23
2023-06-19T08:50:38.582Z,96891.85
2023-06-19T09:00:48.472Z,96887.92
2023-06-19T09:11:02.502Z,96882.71
2023-06-19T09:21:05.590Z,96879.34
2023-06-19T09:31:08.910Z,96872.58
2023-06-19T09:41:13.594Z,96863.55
2023-06-19T09:51:32.466Z,96866.14
2023-06-19T10:01:39.897Z,96868.37
2023-06-19T10:11:55.703Z,96861.84
2023-06-19T10:22:01.415Z,96856.60
2023-06-19T10:32:05.153Z,96855.92
2023-06-19T10:42:09.735Z,96845.73
2023-06-19T10:52:14.592Z,96845.31
2023-06-19T11:02:19.655Z,96849.86
2023-06-19T11:12:23.773Z,96847.59
2023-06-19T11:22:42.057Z,96845.43
2023-06-19T11:32:46.934Z,96843.05
2023-06-19T11:42:54.969Z,96835.81
2023-06-19T11:53:01.504Z,96826.89
2023-06-19T12:03:05.084Z,96823.43
2023-06-19T12:13:08.732Z,96821.73
2023-06-19T12:23:11.686Z,96828.98
2023-06-19T12:33:14.857Z,96817.86
2023-06-19T12:43:19.119Z,96806.69
2023-06-19T12:53:27.823Z,96797.23
2023-06-19T13:03:31.497Z,96790.41
2023-06-19T13:13:35.224Z,96784.90
2023-06-19T13:23:38.481Z,96774.00
2023-06-19T13:33:42.013Z,96775.03
2023-06-19T13:43:47.095Z,96773.36
2023-06-19T13:53:50.851Z,96772.37
2023-06-19T14:03:58.792Z,96768.19
2023-06-19T14:14:02.600Z,96767.48
2023-06-19T14:24:06.741Z,96777.23
2023-06-19T14:34:10.165Z,96777.08
2023-06-19T14:44:13.602Z,96776.67
2023-06-19T15:05:05.094Z,96783.27
2023-06-19T15:15:12.610Z,96783.91
2023-06-19T15:25:17.443Z,96786.48
2023-06-19T15:35:20.733Z,96777.86
2023-06-19T15:45:24.280Z,96766.23
2023-06-19T15:55:29.009Z,96766.44
2023-06-19T16:05:33.320Z,96773.29
2023-06-19T16:15:37.281Z,96768.99
2023-06-19T16:25:40.616Z,96768.90
2023-06-19T16:35:44.118Z,96770.41
2023-06-19T16:45:47.345Z,96778.60
2023-06-19T16:55:59.618Z,96773.41
2023-06-19T17:06:03.153Z,96778.04
2023-06-19T17:16:06.469Z,96778.71
2023-06-19T17:26:09.970Z,96782.54
2023-06-19T17:36:13.061Z,96788.35
2023-06-19T17:46:16.203Z,96786.66
2023-06-19T17:56:19.986Z,96785.25
2023-06-19T18:06:23.214Z,96791.07
2023-06-19T18:16:28.777Z,96802.98
2023-06-19T18:26:32.843Z,96815.32
2023-06-19T18:36:36.398Z,96823.11
2023-06-19T18:46:40.081Z,96828.73
2023-06-19T18:56:43.162Z,96829.35
2023-06-19T19:06:46.372Z,96831.09
2023-06-19T19:16:51.485Z,96833.80
2023-06-19T19:26:54.988Z,96849.16
2023-06-19T19:36:58.421Z,96865.98
2023-06-19T19:47:02.075Z,96874.25
2023-06-19T19:57:06.954Z,96874.63
2023-06-19T20:07:11.211Z,96887.53
2023-06-19T20:17:14.991Z,96887.77
2023-06-19T20:27:18.222Z,96888.63
2023-06-19T20:37:21.744Z,96896.86
2023-06-19T20:47:25.029Z,96907.33
2023-06-19T20:57:28.088Z,96908.99
2023-06-19T21:07:34.242Z,96915.33
2023-06-19T21:17:37.580Z,96919.08
2023-06-19T21:27:43.294Z,96921.06
2023-06-19T21:37:47.715Z,96930.12
2023-06-19T21:47:51.846Z,96929.69
2023-06-19T21:58:00.045Z,96935.77
2023-06-19T22:08:04.379Z,96944.63
2023-06-19T22:18:07.544Z,96942.55
2023-06-19T22:28:11.392Z,96946.26
2023-06-19T22:38:15.323Z,96942.06
2023-06-19T22:48:19.644Z,96947.23
2023-06-19T22:58:23.395Z,96945.05
2023-06-19T23:08:27.152Z,96950.11
2023-06-19T23:18:30.702Z,96949.99
2023-06-19T23:28:33.811Z,96949.95
2023-06-19T23:38:36.913Z,96954.83
2023-06-19T23:48:40.652Z,96956.36
2023-06-19T23:58:43.752Z,96947.65
